createdAt,value
2022-10-20T00:01:20.539Z,10.29
2022-10-20T00:03:49.854Z,10.12
2022-10-20T00:06:23.591Z,9.97
2022-10-20T00:08:52.873Z,9.90
2022-10-20T00:11:22.933Z,10.14
2022-10-20T00:13:53.501Z,10.44
2022-10-20T00:16:22.794Z,10.81
2022-10-20T00:18:51.754Z,11.14
2022-10-20T00:21:24.865Z,11.41
2022-10-20T00:23:53.623Z,11.62
2022-10-20T00:26:25.098Z,11.76
2022-10-20T00:28:54.592Z,11.81
2022-10-20T00:31:23.972Z,11.90
2022-10-20T00:33:52.945Z,11.92
2022-10-20T00:36:22.756Z,11.57
2022-10-20T00:38:51.577Z,11.17
2022-10-20T00:41:21.825Z,10.86
2022-10-20T00:43:54.715Z,10.62
2022-10-20T00:46:40.614Z,10.42
2022-10-20T00:49:20.880Z,10.23
2022-10-20T00:51:50.841Z,10.07
2022-10-20T00:54:27.431Z,9.98
2022-10-20T00:56:57.640Z,10.28
2022-10-20T00:59:33.313Z,10.67
2022-10-20T01:02:02.542Z,10.97
2022-10-20T01:04:32.271Z,11.13
2022-10-20T01:07:00.933Z,11.27
2022-10-20T01:09:29.753Z,11.38
2022-10-20T01:12:08.660Z,11.52
2022-10-20T01:15:03.377Z,11.59
2022-10-20T01:17:55.721Z,11.65
2022-10-20T01:20:36.887Z,11.63
2022-10-20T01:23:25.762Z,11.15
2022-10-20T01:26:09.191Z,10.65
2022-10-20T01:28:57.878Z,10.23
2022-10-20T01:31:42.456Z,9.90
2022-10-20T01:34:27.686Z,9.61
2022-10-20T01:37:01.975Z,9.51
2022-10-20T01:40:10.117Z,9.86
2022-10-20T01:42:42.564Z,10.21
2022-10-20T01:45:14.867Z,10.35
2022-10-20T01:47:44.756Z,10.51
2022-10-20T01:50:15.634Z,10.72
2022-10-20T01:52:44.098Z,10.89
2022-10-20T01:55:18.235Z,11.06
2022-10-20T01:57:55.278Z,11.12
2022-10-20T02:00:24.183Z,11.13
2022-10-20T02:03:11.233Z,11.20
2022-10-20T02:06:34.088Z,11.19
2022-10-20T02:09:08.892Z,10.97
2022-10-20T02:11:44.569Z,10.55
2022-10-20T02:14:16.461Z,10.16
2022-10-20T02:16:52.378Z,9.85
2022-10-20T02:19:24.960Z,9.60
2022-10-20T02:21:55.415Z,9.38
2022-10-20T02:24:28.986Z,9.18
2022-10-20T02:27:01.783Z,9.08
2022-10-20T02:29:35.793Z,9.32
2022-10-20T02:32:04.726Z,9.59
2022-10-20T02:34:33.137Z,9.78
2022-10-20T02:37:01.574Z,9.96
2022-10-20T02:39:29.814Z,10.11
2022-10-20T02:41:58.122Z,10.22
2022-10-20T02:44:26.302Z,10.32
2022-10-20T02:46:54.514Z,10.42
2022-10-20T02:49:22.932Z,10.49
2022-10-20T02:51:51.536Z,10.60
2022-10-20T02:54:19.827Z,10.71
2022-10-20T02:56:47.987Z,10.72
2022-10-20T02:59:17.139Z,10.39
2022-10-20T03:01:45.741Z,10.01
2022-10-20T03:04:14.873Z,9.73
2022-10-20T03:06:43.147Z,9.48
2022-10-20T03:09:11.571Z,9.27
2022-10-20T03:11:39.837Z,9.10
2022-10-20T03:14:08.021Z,8.95
2022-10-20T03:16:36.394Z,8.86
2022-10-20T03:19:06.296Z,9.11
2022-10-20T03:21:35.675Z,9.42
2022-10-20T03:24:04.208Z,9.62
2022-10-20T03:26:33.268Z,9.75
2022-10-20T03:29:01.475Z,9.84
2022-10-20T03:31:29.769Z,9.92
2022-10-20T03:33:58.182Z,9.99
2022-10-20T03:36:26.345Z,10.07
2022-10-20T03:38:54.563Z,10.12
2022-10-20T03:41:22.793Z,10.16
2022-10-20T03:43:50.964Z,10.14
2022-10-20T03:46:19.146Z,10.13
2022-10-20T03:48:47.307Z,10.17
2022-10-20T03:51:15.841Z,10.27
2022-10-20T03:53:44.241Z,10.34
2022-10-20T03:56:18.165Z,10.35
2022-10-20T03:58:46.869Z,10.37
2022-10-20T04:01:21.682Z,10.41
2022-10-20T04:03:50.003Z,10.45
2022-10-20T04:06:18.345Z,10.47
2022-10-20T04:08:46.646Z,10.42
2022-10-20T04:11:15.070Z,10.09
2022-10-20T04:13:43.591Z,9.73
2022-10-20T04:16:11.804Z,9.44
2022-10-20T04:18:40.031Z,9.20
2022-10-20T04:21:08.508Z,9.03
2022-10-20T04:23:36.733Z,8.88
2022-10-20T04:26:09.985Z,8.73
2022-10-20T04:28:38.685Z,8.64
2022-10-20T04:31:07.786Z,8.86
2022-10-20T04:33:36.479Z,9.15
2022-10-20T04:36:08.730Z,9.33
2022-10-20T04:38:37.128Z,9.47
2022-10-20T04:41:05.973Z,9.56
2022-10-20T04:43:34.701Z,9.64
2022-10-20T04:46:07.986Z,9.68
2022-10-20T04:48:38.045Z,9.72
2022-10-20T04:51:09.085Z,9.76
2022-10-20T04:53:37.725Z,9.79
2022-10-20T04:56:08.289Z,9.82
2022-10-20T04:58:36.527Z,10.03
2022-10-20T05:01:10.210Z,10.35
2022-10-20T05:03:38.613Z,10.43
2022-10-20T05:06:18.739Z,10.00
2022-10-20T05:08:49.911Z,9.46
2022-10-20T05:11:20.529Z,9.07
2022-10-20T05:13:49.020Z,8.74
2022-10-20T05:16:18.141Z,8.47
2022-10-20T05:18:47.450Z,8.24
2022-10-20T05:21:18.168Z,8.12
2022-10-20T05:23:46.884Z,8.54
2022-10-20T05:26:19.277Z,9.02
2022-10-20T05:28:48.295Z,9.30
2022-10-20T05:31:18.380Z,9.47
2022-10-20T05:33:52.728Z,9.69
2022-10-20T05:36:25.367Z,9.86
2022-10-20T05:38:55.541Z,9.98
2022-10-20T05:41:26.801Z,10.04
2022-10-20T05:43:58.051Z,9.94
2022-10-20T05:46:29.518Z,9.52
2022-10-20T05:49:00.049Z,9.07
2022-10-20T05:51:31.062Z,8.71
2022-10-20T05:53:59.838Z,8.40
2022-10-20T05:56:29.729Z,8.13
2022-10-20T05:58:58.363Z,7.98
2022-10-20T06:01:39.318Z,8.21
2022-10-20T06:04:08.881Z,8.51
2022-10-20T06:06:37.135Z,8.70
2022-10-20T06:09:07.534Z,8.85
2022-10-20T06:11:39.237Z,8.97
2022-10-20T06:14:08.842Z,9.12
2022-10-20T06:16:37.300Z,9.23
2022-10-20T06:19:06.862Z,9.29
2022-10-20T06:21:37.135Z,9.38
2022-10-20T06:24:06.831Z,9.47
2022-10-20T06:26:36.755Z,9.55
2022-10-20T06:29:07.801Z,9.65
2022-10-20T06:31:39.236Z,9.71
2022-10-20T06:34:10.096Z,9.75
2022-10-20T06:36:39.914Z,9.78
2022-10-20T06:39:11.559Z,9.84
2022-10-20T06:41:41.646Z,9.91
2022-10-20T06:44:10.073Z,9.99
2022-10-20T06:46:38.868Z,10.06
2022-10-20T06:49:08.249Z,10.11
2022-10-20T06:51:36.492Z,10.15
2022-10-20T06:54:05.807Z,10.22
2022-10-20T06:56:35.880Z,10.28
2022-10-20T06:59:04.656Z,10.36
2022-10-20T07:01:35.935Z,10.35
2022-10-20T07:04:11.547Z,10.06
2022-10-20T07:06:42.029Z,9.70
2022-10-20T07:09:16.830Z,9.44
2022-10-20T07:11:45.243Z,9.23
2022-10-20T07:14:15.064Z,9.08
2022-10-20T07:16:43.191Z,8.93
2022-10-20T07:19:11.655Z,8.86
2022-10-20T07:21:42.978Z,9.14
2022-10-20T07:24:14.492Z,9.48
2022-10-20T07:26:42.907Z,9.73
2022-10-20T07:29:12.207Z,9.91
2022-10-20T07:31:45.739Z,10.07
2022-10-20T07:34:26.197Z,10.23
2022-10-20T07:36:56.763Z,10.36
2022-10-20T07:39:25.890Z,10.53
2022-10-20T07:41:54.171Z,10.66
2022-10-20T07:44:23.363Z,10.80
2022-10-20T07:46:51.831Z,10.87
2022-10-20T07:52:08.490Z,10.31
2022-10-20T07:54:37.280Z,10.10
2022-10-20T07:57:05.478Z,9.93
2022-10-20T07:59:33.691Z,9.81
2022-10-20T08:02:02.177Z,9.72
2022-10-20T08:04:31.863Z,9.65
2022-10-20T08:07:00.938Z,9.61
2022-10-20T08:09:29.259Z,9.58
2022-10-20T08:11:57.849Z,9.57
2022-10-20T08:14:32.098Z,9.57
2022-10-20T08:17:04.324Z,9.57
2022-10-20T08:20:02.795Z,9.59
2022-10-20T08:22:25.192Z,9.63
2022-10-20T08:24:54.223Z,9.68
2022-10-20T08:27:22.434Z,9.72
2022-10-20T08:29:59.960Z,9.79
2022-10-20T08:32:37.961Z,9.86
2022-10-20T08:35:07.120Z,9.93
2022-10-20T08:37:36.792Z,10.02
2022-10-20T08:40:06.017Z,10.11
2022-10-20T08:42:39.088Z,10.21
2022-10-20T08:45:07.964Z,10.33
2022-10-20T08:47:38.416Z,10.46
2022-10-20T08:50:10.325Z,10.58
2022-10-20T08:52:41.824Z,10.70
2022-10-20T08:55:22.594Z,10.83
2022-10-20T08:57:50.937Z,10.98
2022-10-20T09:00:22.219Z,11.12
2022-10-20T09:02:51.125Z,11.26
2022-10-20T09:05:32.884Z,11.40
2022-10-20T09:08:01.219Z,11.56
2022-10-20T09:10:37.202Z,11.72
2022-10-20T09:13:24.256Z,11.92
2022-10-20T09:15:58.977Z,12.15
2022-10-20T09:18:27.400Z,12.33
2022-10-20T09:21:16.897Z,12.44
2022-10-20T09:23:49.436Z,12.55
2022-10-20T09:26:54.347Z,12.63
2022-10-20T09:29:35.718Z,12.68
2022-10-20T09:32:52.939Z,12.71
2022-10-20T09:35:28.239Z,12.74
2022-10-20T09:38:02.051Z,12.76
2022-10-20T09:40:31.193Z,12.76
2022-10-20T09:43:09.725Z,12.77
2022-10-20T09:45:47.744Z,12.87
2022-10-20T09:48:40.869Z,13.02
2022-10-20T09:51:15.604Z,13.22
2022-10-20T09:53:52.278Z,13.32
2022-10-20T09:56:44.340Z,13.40
2022-10-20T09:59:25.108Z,13.46
2022-10-20T10:02:16.779Z,13.50
2022-10-20T10:04:52.893Z,13.52
2022-10-20T10:07:27.132Z,13.55
2022-10-20T10:10:00.343Z,13.59
2022-10-20T10:12:32.530Z,13.63
2022-10-20T10:15:23.777Z,13.65
2022-10-20T10:17:52.117Z,13.66
2022-10-20T10:20:38.993Z,13.69
2022-10-20T10:23:25.177Z,13.72
2022-10-20T10:25:57.948Z,13.76
2022-10-20T10:28:36.123Z,13.87
2022-10-20T10:31:16.686Z,14.14
2022-10-20T10:33:45.073Z,14.51
2022-10-20T10:36:37.812Z,14.89
2022-10-20T10:39:07.774Z,15.41
2022-10-20T10:41:51.161Z,15.88
2022-10-20T10:44:37.862Z,16.45
2022-10-20T10:47:40.374Z,16.99
2022-10-20T10:50:18.281Z,17.64
2022-10-20T10:52:55.040Z,18.36
2022-10-20T10:55:47.692Z,18.91
2022-10-20T10:58:40.821Z,19.30
2022-10-20T11:01:17.257Z,19.53
2022-10-20T11:04:30.234Z,19.85
2022-10-20T11:07:35.421Z,21.26
2022-10-20T11:10:35.836Z,23.32
2022-10-20T11:13:31.874Z,25.70
2022-10-20T11:16:28.290Z,28.16
2022-10-20T11:19:11.919Z,30.40
2022-10-20T11:22:15.922Z,32.26
2022-10-20T11:25:11.717Z,34.13
2022-10-20T11:27:40.193Z,35.76
2022-10-20T11:30:19.484Z,37.06
2022-10-20T11:33:21.025Z,38.06
2022-10-20T11:35:55.636Z,39.33
2022-10-20T11:38:32.942Z,40.38
2022-10-20T11:41:07.289Z,41.46
2022-10-20T11:43:50.686Z,42.62
2022-10-20T11:46:51.313Z,43.77
2022-10-20T11:49:19.904Z,44.95
2022-10-20T11:51:58.888Z,45.88
2022-10-20T11:54:37.182Z,46.77
2022-10-20T11:57:29.625Z,47.58
2022-10-20T12:00:46.048Z,48.19
2022-10-20T12:03:16.947Z,48.85
2022-10-20T12:05:54.129Z,49.32
2022-10-20T12:08:30.512Z,49.78
2022-10-20T12:11:29.203Z,50.16
2022-10-20T12:14:17.456Z,50.52
2022-10-20T12:16:54.712Z,50.83
2022-10-20T12:19:29.904Z,51.17
2022-10-20T12:22:16.452Z,51.32
2022-10-20T12:24:50.539Z,51.54
2022-10-20T12:27:21.376Z,51.80
2022-10-20T12:30:04.258Z,52.13
2022-10-20T12:32:37.415Z,52.49
2022-10-20T12:35:12.212Z,52.78
2022-10-20T12:37:44.769Z,53.14
2022-10-20T12:40:15.300Z,53.47
2022-10-20T12:42:50.002Z,53.71
2022-10-20T12:45:18.175Z,53.92
2022-10-20T12:47:54.291Z,54.12
2022-10-20T12:50:45.425Z,54.28
2022-10-20T12:53:27.288Z,54.17
2022-10-20T12:56:14.481Z,54.05
2022-10-20T12:59:09.636Z,53.94
2022-10-20T13:02:09.858Z,54.03
2022-10-20T13:05:10.627Z,54.14
2022-10-20T13:07:52.605Z,54.10
2022-10-20T13:10:26.926Z,54.08
2022-10-20T13:13:01.191Z,54.09
2022-10-20T13:15:42.811Z,54.09
2022-10-20T13:18:11.562Z,54.05
2022-10-20T13:20:49.708Z,53.99
2022-10-20T13:23:42.682Z,53.87
2022-10-20T13:26:23.314Z,53.74
2022-10-20T13:28:55.437Z,53.60
2022-10-20T13:31:35.918Z,53.50
2022-10-20T13:34:19.592Z,53.35
2022-10-20T13:37:06.055Z,53.15
2022-10-20T13:39:52.651Z,53.03
2022-10-20T13:42:37.739Z,52.90
2022-10-20T13:45:31.112Z,52.63
2022-10-20T13:48:18.457Z,52.26
2022-10-20T13:50:54.627Z,51.94
2022-10-20T13:53:38.122Z,51.48
2022-10-20T13:56:24.771Z,50.97
2022-10-20T13:59:18.710Z,49.38
2022-10-20T14:01:50.521Z,46.53
2022-10-20T14:04:29.641Z,43.83
2022-10-20T14:07:17.357Z,41.15
2022-10-20T14:09:47.649Z,38.62
2022-10-20T14:12:26.007Z,37.15
2022-10-20T14:15:02.129Z,35.96
2022-10-20T14:17:30.790Z,34.33
2022-10-20T14:20:20.735Z,32.72
2022-10-20T14:22:49.875Z,30.95
2022-10-20T14:25:18.573Z,29.52
2022-10-20T14:27:47.602Z,28.22
2022-10-20T14:30:18.355Z,26.99
2022-10-20T14:32:48.220Z,25.90
2022-10-20T14:35:26.915Z,24.92
2022-10-20T14:38:06.891Z,23.98
2022-10-20T14:40:37.026Z,23.09
2022-10-20T14:43:13.321Z,22.30
2022-10-20T14:45:41.541Z,21.56
2022-10-20T14:48:16.134Z,20.93
2022-10-20T14:50:44.948Z,20.31
2022-10-20T14:53:16.617Z,19.76
2022-10-20T14:55:44.980Z,19.24
2022-10-20T14:58:58.333Z,18.75
2022-10-20T15:01:31.966Z,18.15
2022-10-20T15:04:04.741Z,17.71
2022-10-20T15:06:33.909Z,17.33
2022-10-20T15:09:03.763Z,16.97
2022-10-20T15:11:32.777Z,16.64
2022-10-20T15:14:01.114Z,16.33
2022-10-20T15:16:55.919Z,16.03
2022-10-20T15:19:36.631Z,15.69
2022-10-20T15:24:42.196Z,15.10
2022-10-20T15:27:16.880Z,14.84
2022-10-20T15:29:51.621Z,14.58
2022-10-20T15:32:19.984Z,14.31
2022-10-20T15:34:48.278Z,14.06
2022-10-20T15:37:16.690Z,13.83
2022-10-20T15:39:45.100Z,13.61
2022-10-20T15:42:13.363Z,13.39
2022-10-20T15:44:41.582Z,13.18
2022-10-20T15:47:11.390Z,12.97
2022-10-20T15:49:39.576Z,12.79
2022-10-20T15:52:09.443Z,12.60
2022-10-20T15:54:37.674Z,12.42
2022-10-20T15:57:06.080Z,12.25
2022-10-20T15:59:34.290Z,12.08
2022-10-20T16:02:02.804Z,11.90
2022-10-20T16:04:31.889Z,11.75
2022-10-20T16:07:02.766Z,11.60
2022-10-20T16:09:31.694Z,11.45
2022-10-20T16:12:00.001Z,11.31
2022-10-20T16:14:28.263Z,11.18
2022-10-20T16:16:58.929Z,11.05
2022-10-20T16:19:27.173Z,10.92
2022-10-20T16:21:55.328Z,10.80
2022-10-20T16:24:23.945Z,10.68
2022-10-20T16:26:52.926Z,10.54
2022-10-20T16:29:21.177Z,10.43
2022-10-20T16:31:49.457Z,10.34
2022-10-20T16:34:17.825Z,10.24
2022-10-20T16:36:46.262Z,10.14
2022-10-20T16:39:17.344Z,10.05
2022-10-20T16:41:47.071Z,9.95
2022-10-20T16:44:15.256Z,9.87
2022-10-20T16:46:43.820Z,9.78
2022-10-20T16:49:12.592Z,9.69
2022-10-20T16:51:40.852Z,9.61
2022-10-20T16:54:09.285Z,9.53
2022-10-20T16:56:37.937Z,9.47
2022-10-20T16:59:06.180Z,9.39
2022-10-20T17:01:34.924Z,9.32
2022-10-20T17:04:03.787Z,9.25
2022-10-20T17:06:32.315Z,9.18
2022-10-20T17:09:00.722Z,9.10
2022-10-20T17:11:30.673Z,9.03
2022-10-20T17:13:59.764Z,8.98
2022-10-20T17:16:33.872Z,8.92
2022-10-20T17:19:03.141Z,8.87
2022-10-20T17:21:32.880Z,8.83
2022-10-20T17:24:02.836Z,8.79
2022-10-20T17:26:31.647Z,8.74
2022-10-20T17:29:01.367Z,8.69
2022-10-20T17:31:30.694Z,8.63
2022-10-20T17:34:00.145Z,8.59
2022-10-20T17:36:29.714Z,8.54
2022-10-20T17:39:01.603Z,8.50
2022-10-20T17:41:30.489Z,8.46
2022-10-20T17:44:00.794Z,8.43
2022-10-20T17:46:29.472Z,8.40
2022-10-20T17:48:58.132Z,8.39
2022-10-20T17:51:29.027Z,8.38
2022-10-20T17:54:00.862Z,8.37
2022-10-20T17:56:31.583Z,8.36
2022-10-20T17:59:03.262Z,8.36
2022-10-20T18:01:40.057Z,8.37
2022-10-20T18:04:14.526Z,8.37
2022-10-20T18:06:45.022Z,8.36
2022-10-20T18:09:15.947Z,8.36
2022-10-20T18:11:48.525Z,8.32
2022-10-20T18:14:17.283Z,8.29
2022-10-20T18:16:46.494Z,8.27
2022-10-20T18:19:17.674Z,8.25
2022-10-20T18:21:46.998Z,8.22
2022-10-20T18:24:17.747Z,8.17
2022-10-20T18:26:46.956Z,8.12
2022-10-20T18:29:16.771Z,8.08
2022-10-20T18:31:47.013Z,8.04
2022-10-20T18:34:18.417Z,8.02
2022-10-20T18:36:47.383Z,8.00
2022-10-20T18:39:16.369Z,8.06
2022-10-20T18:41:45.812Z,8.46
2022-10-20T18:44:16.994Z,8.89
2022-10-20T18:46:47.079Z,9.21
2022-10-20T18:49:20.478Z,9.47
2022-10-20T18:51:50.798Z,9.65
2022-10-20T18:54:20.010Z,9.47
2022-10-20T18:56:48.350Z,9.19
2022-10-20T18:59:18.096Z,8.95
2022-10-20T19:01:48.421Z,8.77
2022-10-20T19:04:16.774Z,8.61
2022-10-20T19:06:47.714Z,8.49
2022-10-20T19:09:19.211Z,8.40
2022-10-20T19:14:18.637Z,8.25
2022-10-20T19:16:47.826Z,8.19
2022-10-20T19:19:16.892Z,8.13
2022-10-20T19:21:45.582Z,8.07
2022-10-20T19:24:20.859Z,8.11
2022-10-20T19:27:24.916Z,8.52
2022-10-20T19:29:44.029Z,9.01
2022-10-20T19:32:12.336Z,9.30
2022-10-20T19:34:41.564Z,9.49
2022-10-20T19:37:10.356Z,9.65
2022-10-20T19:39:41.376Z,9.81
2022-10-20T19:42:11.281Z,9.94
2022-10-20T19:44:40.159Z,10.01
2022-10-20T19:47:09.154Z,9.72
2022-10-20T19:49:38.022Z,9.35
2022-10-20T19:52:08.000Z,9.07
2022-10-20T19:54:36.382Z,8.83
2022-10-20T19:57:04.875Z,8.63
2022-10-20T19:59:33.440Z,8.46
2022-10-20T20:02:01.721Z,8.29
2022-10-20T20:04:30.314Z,8.16
2022-10-20T20:07:02.160Z,8.03
2022-10-20T20:09:31.241Z,7.92
2022-10-20T20:11:59.698Z,7.83
2022-10-20T20:14:28.163Z,7.72
2022-10-20T20:16:56.488Z,7.70
2022-10-20T20:19:24.986Z,8.02
2022-10-20T20:21:53.786Z,8.39
2022-10-20T20:24:22.051Z,8.71
2022-10-20T20:26:50.536Z,8.95
2022-10-20T20:29:18.776Z,9.12
2022-10-20T20:31:48.296Z,9.09
2022-10-20T20:34:16.997Z,8.75
2022-10-20T20:36:45.266Z,8.41
2022-10-20T20:39:13.667Z,8.16
2022-10-20T20:41:42.839Z,7.96
2022-10-20T20:44:11.270Z,7.80
2022-10-20T20:46:39.572Z,7.75
2022-10-20T20:49:07.798Z,8.24
2022-10-20T20:51:36.253Z,8.94
2022-10-20T20:54:04.713Z,9.61
2022-10-20T20:56:33.384Z,10.17
2022-10-20T20:59:01.951Z,10.46
2022-10-20T21:01:32.022Z,10.08
2022-10-20T21:04:04.703Z,9.58
2022-10-20T21:06:56.582Z,9.17
2022-10-20T21:09:21.314Z,8.75
2022-10-20T21:11:49.971Z,8.48
2022-10-20T21:14:18.465Z,8.25
2022-10-20T21:16:47.246Z,8.03
2022-10-20T21:19:15.932Z,7.96
2022-10-20T21:21:50.800Z,8.60
2022-10-20T21:24:19.499Z,9.35
2022-10-20T21:26:48.845Z,9.78
2022-10-20T21:29:17.711Z,9.51
2022-10-20T21:31:45.916Z,9.01
2022-10-20T21:34:14.212Z,8.60
2022-10-20T21:36:42.724Z,8.30
2022-10-20T21:39:15.949Z,8.06
2022-10-20T21:41:45.813Z,8.00
2022-10-20T21:44:15.069Z,8.62
2022-10-20T21:46:47.587Z,9.26
2022-10-20T21:49:17.366Z,9.70
2022-10-20T21:51:49.911Z,9.74
2022-10-20T21:56:50.186Z,8.77
2022-10-20T21:59:26.676Z,8.38
2022-10-20T22:01:57.804Z,8.08
2022-10-20T22:04:27.774Z,7.85
2022-10-20T22:06:56.775Z,7.76
2022-10-20T22:09:25.146Z,8.19
2022-10-20T22:11:56.776Z,8.67
2022-10-20T22:14:25.986Z,9.04
2022-10-20T22:16:55.757Z,9.29
2022-10-20T22:19:25.182Z,9.53
2022-10-20T22:21:54.537Z,9.43
2022-10-20T22:24:23.622Z,8.98
2022-10-20T22:26:53.062Z,8.57
2022-10-20T22:29:23.203Z,8.26
2022-10-20T22:31:51.680Z,8.03
2022-10-20T22:34:19.979Z,7.93
2022-10-20T22:36:48.184Z,8.36
2022-10-20T22:39:16.596Z,8.96
2022-10-20T22:41:44.864Z,9.43
